Time;durP1;ratioP1;P1;durP2;ratioP2;P2;SDS_P1;SDS_P2;PMS_P1;PMS_P2;Temp;Humidity;BMP_temperature;BMP_pressure;BME280_temperature;BME280_humidity;BME280_pressure;Samples;Min_cycle;Max_cycle;Signal;HPM_P1;HPM_P2
2023/11/16 00:00:19;;;;;;;1999.90;999.90;;;9.90;99.90;;;;;;4968868;28;20287;-72
2023/11/16 00:02:45;;;;;;;1999.90;999.90;;;9.90;99.90;;;;;;4974221;28;20057;-71
2023/11/16 00:05:16;;;;;;;1999.90;999.90;;;9.90;99.90;;;;;;4969881;28;20058;-71
2023/11/16 00:07:47;;;;;;;1999.90;999.90;;;9.90;99.90;;;;;;4972014;28;20320;-72
2023/11/16 00:10:16;;;;;;;1999.90;999.90;;;9.90;99.90;;;;;;4971193;28;20065;-72
2023/11/16 00:12:42;;;;;;;1999.90;999.90;;;9.80;99.90;;;;;;4965347;28;20077;-71
2023/11/16 00:15:08;;;;;;;1999.90;999.90;;;9.80;99.90;;;;;;4962098;28;20024;-71
2023/11/16 00:17:38;;;;;;;1999.90;999.90;;;9.70;99.90;;;;;;4970513;28;20472;-71
2023/11/16 00:20:09;;;;;;;1999.90;999.90;;;9.70;99.90;;;;;;4986671;28;20027;-71
2023/11/16 00:22:35;;;;;;;1999.90;999.90;;;9.70;99.90;;;;;;4972333;28;20473;-71
2023/11/16 00:25:05;;;;;;;1999.90;999.90;;;9.70;99.90;;;;;;4980558;28;20035;-72
2023/11/16 00:27:34;;;;;;;1999.90;999.90;;;9.60;99.90;;;;;;4956268;28;20452;-71
2023/11/16 00:30:02;;;;;;;1999.90;999.90;;;9.60;99.90;;;;;;4982013;28;20042;-71
2023/11/16 00:32:28;;;;;;;1999.90;999.90;;;9.70;99.90;;;;;;4984661;28;20049;-71
2023/11/16 00:34:54;;;;;;;1999.90;999.90;;;9.60;99.90;;;;;;5028114;28;20027;-71
2023/11/16 00:37:20;;;;;;;1999.90;999.90;;;9.70;99.90;;;;;;4957526;28;20030;-71
2023/11/16 00:39:47;;;;;;;1999.90;999.90;;;9.60;99.90;;;;;;5013262;28;20412;-71
2023/11/16 00:42:13;;;;;;;1999.90;999.90;;;9.70;99.90;;;;;;4970915;28;20181;-71
2023/11/16 00:44:39;;;;;;;1999.90;999.90;;;9.60;99.90;;;;;;4975350;28;20325;-71
2023/11/16 00:47:05;;;;;;;1999.90;999.90;;;9.60;99.90;;;;;;4972111;28;20068;-71
2023/11/16 00:49:30;;;;;;;1999.90;999.90;;;9.60;99.90;;;;;;4970612;28;20022;-72
2023/11/16 00:51:56;;;;;;;1999.90;999.90;;;9.70;99.90;;;;;;4971167;28;20038;-71
2023/11/16 00:54:25;;;;;;;1999.90;999.90;;;9.60;99.90;;;;;;4969307;28;20049;-71
2023/11/16 00:56:50;;;;;;;1999.90;999.90;;;9.60;99.90;;;;;;4965893;28;20035;-71
2023/11/16 00:59:20;;;;;;;1999.90;999.90;;;9.60;99.90;;;;;;4971649;28;20030;-71
2023/11/16 01:01:46;;;;;;;1999.90;999.90;;;9.60;99.90;;;;;;4959479;28;20027;-72
2023/11/16 01:04:13;;;;;;;1999.90;999.90;;;9.50;99.90;;;;;;4969774;28;20357;-71
2023/11/16 01:06:39;;;;;;;1999.90;999.90;;;9.50;99.90;;;;;;4970395;28;20321;-71
2023/11/16 01:09:09;;;;;;;1999.90;999.90;;;9.40;99.90;;;;;;4968834;28;20027;-71
2023/11/16 01:11:36;;;;;;;1999.90;999.90;;;9.40;99.90;;;;;;4964505;28;20429;-71
2023/11/16 01:14:03;;;;;;;1999.90;999.90;;;9.40;99.90;;;;;;4968108;28;20066;-71
2023/11/16 01:16:41;;;;;;;1999.90;999.90;;;9.40;99.90;;;;;;4976053;28;20445;-71
2023/11/16 01:19:12;;;;;;;1999.90;999.90;;;9.40;99.90;;;;;;4970993;28;20035;-71
2023/11/16 01:21:41;;;;;;;1999.90;999.90;;;9.40;99.90;;;;;;4969394;28;20027;-71
2023/11/16 01:24:11;;;;;;;1999.90;999.90;;;9.30;99.90;;;;;;4973725;28;20023;-71
2023/11/16 01:26:41;;;;;;;1999.90;999.90;;;9.40;99.90;;;;;;4974236;28;20029;-72
2023/11/16 01:29:16;;;;;;;1999.90;999.90;;;9.40;99.90;;;;;;4976213;28;20121;-71
2023/11/16 01:31:42;;;;;;;1999.90;999.90;;;9.40;99.90;;;;;;4974886;28;20298;-71
2023/11/16 01:34:12;;;;;;;1999.90;999.90;;;9.30;99.90;;;;;;4959591;28;20027;-71
2023/11/16 01:36:38;;;;;;;1999.90;999.90;;;9.30;99.90;;;;;;4978394;28;20031;-71
2023/11/16 01:39:04;;;;;;;1999.90;999.90;;;9.20;99.90;;;;;;4975357;28;20104;-71
2023/11/16 01:41:30;;;;;;;1999.90;999.90;;;9.20;99.90;;;;;;4970855;28;20062;-71
2023/11/16 01:43:56;;;;;;;1999.90;999.90;;;9.20;99.90;;;;;;4972801;28;20069;-71
2023/11/16 01:46:26;;;;;;;1999.90;999.90;;;9.10;99.90;;;;;;4969951;28;20026;-71
2023/11/16 01:48:54;;;;;;;1999.90;999.90;;;9.10;99.90;;;;;;4972859;28;20414;-71
2023/11/16 01:51:21;;;;;;;1999.90;999.90;;;9.00;99.90;;;;;;4972927;28;20318;-71
2023/11/16 01:53:57;;;;;;;1999.90;999.90;;;9.00;99.90;;;;;;4969702;28;20034;-71
2023/11/16 01:56:29;;;;;;;1999.90;999.90;;;9.00;99.90;;;;;;4970977;28;20444;-71
2023/11/16 01:58:58;;;;;;;1999.90;999.90;;;9.00;99.90;;;;;;4971951;28;20066;-72
2023/11/16 02:01:26;;;;;;;1999.90;999.90;;;9.00;99.90;;;;;;4961376;28;20038;-71
2023/11/16 02:03:53;;;;;;;1999.90;999.90;;;8.90;99.90;;;;;;4970061;28;20065;-71
2023/11/16 02:06:19;;;;;;;1999.90;999.90;;;8.90;99.90;;;;;;4971984;28;20406;-71
2023/11/16 02:08:44;;;;;;;1999.90;999.90;;;8.90;99.90;;;;;;4972565;28;20092;-71
2023/11/16 02:11:10;;;;;;;1999.90;999.90;;;8.90;99.90;;;;;;4983572;28;20695;-71
2023/11/16 02:13:36;;;;;;;1999.90;999.90;;;8.80;99.90;;;;;;4974421;28;20068;-72
2023/11/16 02:16:06;;;;;;;1999.90;999.90;;;8.80;99.90;;;;;;4978331;28;20690;-71
2023/11/16 02:18:33;;;;;;;1999.90;999.90;;;8.80;99.90;;;;;;4974092;28;20031;-71
2023/11/16 02:20:59;;;;;;;1999.90;999.90;;;8.80;99.90;;;;;;4965895;28;20444;-71
2023/11/16 02:23:25;;;;;;;1999.90;999.90;;;8.80;99.90;;;;;;4972403;28;20031;-71
2023/11/16 02:25:52;;;;;;;1999.90;999.90;;;8.80;99.90;;;;;;4970550;28;20108;-71
2023/11/16 02:28:22;;;;;;;1999.90;999.90;;;8.70;99.90;;;;;;4972303;28;20034;-71
2023/11/16 02:30:49;;;;;;;1999.90;999.90;;;8.70;99.90;;;;;;4999197;28;20057;-71
2023/11/16 02:33:15;;;;;;;;;;;8.70;99.90;;;;;;4974371;28;20058;-71
2023/11/16 02:35:42;;;;;;;1999.90;999.90;;;8.60;99.90;;;;;;4972520;28;19917;-71
2023/11/16 02:38:08;;;;;;;1999.90;999.90;;;8.60;99.90;;;;;;5015958;28;20480;-71
2023/11/16 02:40:34;;;;;;;1999.90;999.90;;;8.60;99.90;;;;;;4979834;28;20105;-71
2023/11/16 02:43:02;;;;;;;1999.90;999.90;;;8.60;99.90;;;;;;4973601;28;20046;-71
2023/11/16 02:45:28;;;;;;;1999.90;999.90;;;8.60;99.90;;;;;;4972378;28;20033;-71
2023/11/16 02:47:54;;;;;;;1999.90;999.90;;;8.60;99.90;;;;;;4975202;28;20022;-71
2023/11/16 02:50:22;;;;;;;1999.90;999.90;;;8.50;99.90;;;;;;4968166;28;20024;-71
2023/11/16 02:52:51;;;;;;;1999.90;999.90;;;8.50;99.90;;;;;;4972607;28;20027;-71
2023/11/16 02:55:20;;;;;;;1999.90;999.90;;;8.50;99.90;;;;;;4973162;28;20019;-71
2023/11/16 02:57:46;;;;;;;1999.90;999.90;;;8.40;99.90;;;;;;4971902;28;20404;-71
2023/11/16 03:00:12;;;;;;;1999.90;999.90;;;8.40;99.90;;;;;;4973349;28;20027;-71
2023/11/16 03:02:42;;;;;;;1999.90;999.90;;;8.40;99.90;;;;;;4973775;28;20283;-71
2023/11/16 03:05:14;;;;;;;1999.90;999.90;;;8.40;99.90;;;;;;4963169;28;20039;-71
2023/11/16 03:07:41;;;;;;;1999.90;999.90;;;8.40;99.90;;;;;;4956710;28;20060;-72
2023/11/16 03:10:07;;;;;;;;;;;8.40;99.90;;;;;;4967245;28;20031;-71
2023/11/16 03:12:36;;;;;;;1999.90;999.90;;;8.30;99.90;;;;;;4971132;28;20220;-71
2023/11/16 03:15:05;;;;;;;1999.90;999.90;;;8.30;99.90;;;;;;4985993;28;20029;-71
2023/11/16 03:17:34;;;;;;;1999.90;999.90;;;8.30;99.90;;;;;;4975668;28;20753;-71
2023/11/16 03:20:00;;;;;;;1999.90;999.90;;;8.30;99.90;;;;;;4972700;28;20684;-71
2023/11/16 03:22:30;;;;;;;1999.90;999.90;;;8.20;99.90;;;;;;4973128;28;20329;-71
2023/11/16 03:24:56;;;;;;;1999.90;999.90;;;8.20;99.90;;;;;;4973342;28;20412;-71
2023/11/16 03:27:22;;;;;;;1999.90;999.90;;;8.20;99.90;;;;;;4971784;28;20019;-71
2023/11/16 03:29:50;;;;;;;1999.90;999.90;;;8.10;99.90;;;;;;4972294;28;20042;-71
2023/11/16 03:32:17;;;;;;;1999.90;999.90;;;8.10;99.90;;;;;;4971498;28;20235;-71
2023/11/16 03:34:44;;;;;;;1999.90;999.90;;;8.10;99.90;;;;;;4972447;28;20030;-71
2023/11/16 03:37:10;;;;;;;1999.90;999.90;;;8.00;99.90;;;;;;4971822;28;20422;-71
2023/11/16 03:39:36;;;;;;;1999.90;999.90;;;8.00;99.90;;;;;;4973932;28;20108;-71
2023/11/16 03:42:02;;;;;;;1999.90;999.90;;;7.90;99.90;;;;;;4972760;28;20429;-71
2023/11/16 03:44:28;;;;;;;1999.90;999.90;;;7.90;99.90;;;;;;4969056;28;20027;-71
2023/11/16 03:46:55;;;;;;;1999.90;999.90;;;7.80;99.90;;;;;;4972453;28;20084;-71
2023/11/16 03:49:21;;;;;;;1999.90;999.90;;;7.80;99.90;;;;;;4970254;28;20031;-71
2023/11/16 03:51:51;;;;;;;1999.90;999.90;;;7.70;99.90;;;;;;4971120;28;20121;-71
2023/11/16 03:54:17;;;;;;;1999.90;999.90;;;7.70;99.90;;;;;;4972920;28;20035;-71
2023/11/16 03:56:43;;;;;;;1999.90;999.90;;;7.70;99.90;;;;;;4978938;28;20041;-71
2023/11/16 03:59:12;;;;;;;1999.90;999.90;;;7.60;99.90;;;;;;4976584;28;20027;-71
2023/11/16 04:01:38;;;;;;;1999.90;999.90;;;7.60;99.90;;;;;;4970836;28;20125;-71
2023/11/16 04:04:10;;;;;;;1999.90;999.90;;;7.60;99.90;;;;;;4972725;28;20536;-71
2023/11/16 04:06:37;;;;;;;1999.90;999.90;;;7.60;99.90;;;;;;4971626;28;20417;-71
2023/11/16 04:09:05;;;;;;;1999.90;999.90;;;7.60;99.90;;;;;;4979182;28;20428;-71
2023/11/16 04:11:32;;;;;;;1999.90;999.90;;;7.60;99.90;;;;;;4968929;28;20373;-71
2023/11/16 04:13:58;;;;;;;;;;;7.60;99.90;;;;;;4973869;28;20081;-72
2023/11/16 04:16:24;;;;;;;1999.90;999.90;;;7.60;99.90;;;;;;4975918;28;19910;-71
2023/11/16 04:18:51;;;;;;;1999.90;999.90;;;7.50;99.90;;;;;;4971722;28;20030;-71
2023/11/16 04:21:21;;;;;;;1999.90;999.90;;;7.50;99.90;;;;;;4974954;28;20046;-71
2023/11/16 04:23:52;;;;;;;1999.90;999.90;;;7.50;99.90;;;;;;4972379;28;20046;-71
2023/11/16 04:26:20;;;;;;;1999.90;999.90;;;7.40;99.90;;;;;;4971794;28;20093;-71
2023/11/16 04:28:47;;;;;;;1999.90;999.90;;;7.40;99.90;;;;;;4970690;28;20026;-71
2023/11/16 04:31:13;;;;;;;;;;;7.50;99.90;;;;;;5013961;28;20039;-71
2023/11/16 04:33:40;;;;;;;1999.90;999.90;;;7.40;99.90;;;;;;4969554;28;19917;-71
2023/11/16 04:36:08;;;;;;;1999.90;999.90;;;7.50;99.90;;;;;;5005793;28;20035;-71
2023/11/16 04:38:37;;;;;;;1999.90;999.90;;;7.40;99.90;;;;;;4979483;28;20066;-71
2023/11/16 04:41:07;;;;;;;1999.90;999.90;;;7.40;99.90;;;;;;4971749;28;20062;-71
2023/11/16 04:43:33;;;;;;;1999.90;999.90;;;7.40;99.90;;;;;;4970677;28;20439;-71
2023/11/16 04:45:59;;;;;;;1999.90;999.90;;;7.30;99.90;;;;;;4973135;28;20027;-71
2023/11/16 04:48:24;;;;;;;1999.90;999.90;;;7.30;99.90;;;;;;4968344;28;20059;-71
2023/11/16 04:50:50;;;;;;;1999.90;999.90;;;7.30;99.90;;;;;;4970952;28;20516;-71
2023/11/16 04:53:16;;;;;;;1999.90;999.90;;;7.20;99.90;;;;;;4971184;28;20035;-71
2023/11/16 04:55:41;;;;;;;1999.90;999.90;;;7.10;99.90;;;;;;4970311;28;20031;-71
2023/11/16 04:58:07;;;;;;;1999.90;999.90;;;7.00;99.90;;;;;;4970269;28;20092;-71
2023/11/16 05:00:33;;;;;;;1999.90;999.90;;;7.00;99.90;;;;;;4971389;28;20302;-71
2023/11/16 05:02:58;;;;;;;1999.90;999.90;;;7.00;99.90;;;;;;4964719;28;20422;-71
2023/11/16 05:05:24;;;;;;;1999.90;999.90;;;7.00;99.90;;;;;;4967364;28;20027;-71
2023/11/16 05:07:50;;;;;;;1999.90;999.90;;;7.00;99.90;;;;;;4969898;28;20038;-71
2023/11/16 05:10:16;;;;;;;1999.90;999.90;;;7.00;99.90;;;;;;4969613;28;20553;-71
2023/11/16 05:12:45;;;;;;;1999.90;999.90;;;7.00;99.90;;;;;;4969667;28;20368;-71
2023/11/16 05:15:11;;;;;;;1999.90;999.90;;;7.10;99.90;;;;;;4971200;28;20078;-71
2023/11/16 05:17:37;;;;;;;1999.90;999.90;;;7.10;99.90;;;;;;4970713;28;20418;-71
2023/11/16 05:20:04;;;;;;;1999.90;999.90;;;7.10;99.90;;;;;;4970505;28;20105;-71
2023/11/16 05:22:29;;;;;;;1999.90;999.90;;;7.20;99.90;;;;;;4970979;28;20031;-71
2023/11/16 05:24:55;;;;;;;1999.90;999.90;;;7.20;99.90;;;;;;4968284;28;20429;-71
2023/11/16 05:27:21;;;;;;;1999.90;999.90;;;7.20;99.90;;;;;;4963954;28;20035;-71
2023/11/16 05:29:46;;;;;;;1999.90;999.90;;;7.20;99.90;;;;;;4971272;28;20038;-71
2023/11/16 05:32:12;;;;;;;1999.90;999.90;;;7.30;99.90;;;;;;4972635;28;20108;-71
2023/11/16 05:34:38;;;;;;;1999.90;999.90;;;7.30;99.90;;;;;;4971138;28;20031;-71
2023/11/16 05:37:04;;;;;;;1999.90;999.90;;;7.40;99.90;;;;;;4970702;28;20437;-71
2023/11/16 05:39:30;;;;;;;1999.90;999.90;;;7.40;99.90;;;;;;4965024;28;20393;-71
2023/11/16 05:41:56;;;;;;;1999.90;999.90;;;7.40;99.90;;;;;;4956620;28;20038;-71
2023/11/16 05:44:22;;;;;;;1999.90;999.90;;;7.30;99.90;;;;;;4999359;28;20418;-71
2023/11/16 05:46:48;;;;;;;1999.90;999.90;;;7.30;99.90;;;;;;4984319;28;20038;-71
2023/11/16 05:49:16;;;;;;;1999.90;999.90;;;7.30;99.90;;;;;;4963011;28;20019;-71
2023/11/16 05:51:42;;;;;;;1999.90;999.90;;;7.30;99.90;;;;;;4992641;28;20038;-71
2023/11/16 05:54:08;;;;;;;1999.90;999.90;;;7.30;99.90;;;;;;4969497;28;20037;-71
2023/11/16 05:56:41;;;;;;;1999.90;999.90;;;7.30;99.90;;;;;;4964904;28;20417;-71
2023/11/16 05:59:10;;;;;;;1999.90;999.90;;;7.30;99.90;;;;;;4961216;28;20031;-71
2023/11/16 06:01:40;;;;;;;1999.90;999.90;;;7.30;99.90;;;;;;4968794;28;20031;-71
2023/11/16 06:04:09;;;;;;;1999.90;999.90;;;7.30;99.90;;;;;;4968277;28;20031;-71
2023/11/16 06:06:35;;;;;;;1999.90;999.90;;;7.20;99.90;;;;;;4971297;28;20057;-71
2023/11/16 06:09:02;;;;;;;1999.90;999.90;;;7.20;99.90;;;;;;4974016;28;20062;-71
2023/11/16 06:11:28;;;;;;;1999.90;999.90;;;7.10;99.90;;;;;;4974979;28;20325;-71
2023/11/16 06:13:55;;;;;;;1999.90;999.90;;;7.10;99.90;;;;;;4974598;28;20022;-71
2023/11/16 06:16:24;;;;;;;1999.90;999.90;;;7.10;99.90;;;;;;4964710;28;20106;-71
2023/11/16 06:18:50;;;;;;;1999.90;999.90;;;7.10;99.90;;;;;;4969367;28;20475;-71
2023/11/16 06:21:16;;;;;;;1999.90;999.90;;;7.00;99.90;;;;;;4970994;28;20065;-71
2023/11/16 06:23:42;;;;;;;1999.90;999.90;;;7.00;99.90;;;;;;4972955;28;20023;-71
2023/11/16 06:26:08;;;;;;;1999.90;999.90;;;7.00;99.90;;;;;;4973747;28;20365;-71
2023/11/16 06:28:37;;;;;;;1999.90;999.90;;;7.10;99.90;;;;;;4972509;28;20027;-71
2023/11/16 06:31:04;;;;;;;1999.90;999.90;;;7.10;99.90;;;;;;4974818;28;20019;-71
2023/11/16 06:33:31;;;;;;;1999.90;999.90;;;7.20;99.90;;;;;;4973938;28;20023;-71
2023/11/16 06:35:56;;;;;;;1999.90;999.90;;;7.20;99.90;;;;;;4974562;28;20421;-71
2023/11/16 06:38:22;;;;;;;1999.90;999.90;;;7.20;99.90;;;;;;4973243;28;20057;-71
2023/11/16 06:40:49;;;;;;;1999.90;999.90;;;7.20;99.90;;;;;;4971220;28;20334;-71
2023/11/16 06:43:15;;;;;;;1999.90;999.90;;;7.20;99.90;;;;;;4972758;28;20050;-71
2023/11/16 06:45:43;;;;;;;1999.90;999.90;;;7.20;99.90;;;;;;4970511;28;20118;-71
2023/11/16 06:48:10;;;;;;;1999.90;999.90;;;7.20;99.90;;;;;;4973489;28;20030;-71
2023/11/16 06:50:38;;;;;;;1999.90;999.90;;;7.10;99.90;;;;;;4977328;28;20128;-71
2023/11/16 06:53:09;;;;;;;1999.90;999.90;;;7.10;99.90;;;;;;4972188;28;20043;-71
2023/11/16 06:55:43;;;;;;;1999.90;999.90;;;7.20;99.90;;;;;;4969418;28;20043;-71
2023/11/16 06:58:09;;;;;;;1999.90;999.90;;;7.20;99.90;;;;;;4966765;28;20511;-71
2023/11/16 07:00:38;;;;;;;1999.90;999.90;;;7.20;99.90;;;;;;4971861;28;20061;-71
2023/11/16 07:03:06;;;;;;;1999.90;999.90;;;7.20;99.90;;;;;;4972970;28;20107;-71
2023/11/16 07:05:32;;;;;;;1999.90;999.90;;;7.20;99.90;;;;;;4971807;28;20033;-71
2023/11/16 07:07:59;;;;;;;1999.90;999.90;;;7.10;99.90;;;;;;4971528;28;20022;-71
2023/11/16 07:10:25;;;;;;;1999.90;999.90;;;7.00;99.90;;;;;;4971918;28;20019;-71
2023/11/16 07:12:51;;;;;;;1999.90;999.90;;;7.00;99.90;;;;;;4971948;28;20038;-71
2023/11/16 07:15:18;;;;;;;1999.90;999.90;;;7.00;99.90;;;;;;4972998;28;20037;-71
2023/11/16 07:17:44;;;;;;;1999.90;999.90;;;7.00;99.90;;;;;;4971801;28;20461;-71
2023/11/16 07:20:13;;;;;;;1999.90;999.90;;;7.00;99.90;;;;;;4960320;28;20110;-71
2023/11/16 07:22:43;;;;;;;1999.90;999.90;;;7.00;99.90;;;;;;4977707;28;20027;-71
2023/11/16 07:25:09;;;;;;;1999.90;999.90;;;7.00;99.90;;;;;;4968452;28;20031;-71
2023/11/16 07:27:38;;;;;;;1999.90;999.90;;;7.10;99.90;;;;;;4979227;28;20063;-71
2023/11/16 07:30:04;;;;;;;1999.90;999.90;;;7.10;99.90;;;;;;4970876;28;20409;-71
2023/11/16 07:32:30;;;;;;;1999.90;999.90;;;7.10;99.90;;;;;;4978451;28;20038;-71
2023/11/16 07:34:58;;;;;;;1999.90;999.90;;;7.20;99.90;;;;;;4972606;28;20191;-71
2023/11/16 07:37:24;;;;;;;1999.90;999.90;;;7.30;99.90;;;;;;4965837;28;20035;-71
2023/11/16 07:39:49;;;;;;;1999.90;999.90;;;7.30;99.90;;;;;;4972855;28;20468;-71
2023/11/16 07:42:15;;;;;;;1999.90;999.90;;;7.30;99.90;;;;;;4969493;28;20481;-71
2023/11/16 07:44:44;;;;;;;1999.90;999.90;;;7.40;99.90;;;;;;4964922;28;20042;-71
2023/11/16 07:47:10;;;;;;;1999.90;999.90;;;7.50;99.90;;;;;;4967457;28;20023;-71
2023/11/16 07:49:38;;;;;;;1999.90;999.90;;;7.50;99.90;;;;;;4976278;28;20062;-71
2023/11/16 07:52:04;;;;;;;1999.90;999.90;;;7.70;99.90;;;;;;4969417;28;20027;-71
2023/11/16 07:54:31;;;;;;;1999.90;999.90;;;7.70;99.90;;;;;;4969367;28;20309;-71
2023/11/16 07:57:01;;;;;;;1999.90;999.90;;;7.90;99.90;;;;;;4976044;28;20387;-71
2023/11/16 07:59:30;;;;;;;1999.90;999.90;;;8.00;99.90;;;;;;4970750;28;20027;-71
2023/11/16 08:01:57;;;;;;;1999.90;999.90;;;8.00;99.90;;;;;;4980530;28;20073;-71
2023/11/16 08:04:25;;;;;;;1999.90;999.90;;;8.00;99.90;;;;;;4968643;28;20101;-71
2023/11/16 08:06:53;;;;;;;1999.90;999.90;;;8.00;99.90;;;;;;4975441;28;20424;-71
2023/11/16 08:09:21;;;;;;;1999.90;999.90;;;8.00;99.90;;;;;;4962129;28;20118;-71
2023/11/16 08:11:53;;;;;;;1999.90;999.90;;;8.00;99.90;;;;;;4980784;28;20027;-71
2023/11/16 08:14:25;;;;;;;1999.90;999.90;;;8.10;99.90;;;;;;4978620;28;20041;-71
2023/11/16 08:16:55;;;;;;;1999.90;999.90;;;8.10;99.90;;;;;;4972342;28;20027;-71
2023/11/16 08:19:21;;;;;;;1999.90;999.90;;;8.10;99.90;;;;;;4971862;28;20034;-71
2023/11/16 08:21:47;;;;;;;1999.90;999.90;;;8.10;99.90;;;;;;4970440;28;20029;-71
2023/11/16 08:24:15;;;;;;;1999.90;999.90;;;8.20;99.90;;;;;;4972427;28;20421;-71
2023/11/16 08:26:42;;;;;;;1999.90;999.90;;;8.30;99.90;;;;;;4971314;28;20027;-71
2023/11/16 08:29:08;;;;;;;1999.90;999.90;;;8.40;99.90;;;;;;4972989;28;20410;-71
2023/11/16 08:31:35;;;;;;;1999.90;999.90;;;8.40;99.90;;;;;;4972819;28;20038;-71
2023/11/16 08:34:01;;;;;;;1999.90;999.90;;;8.40;99.90;;;;;;4970726;28;20120;-71
2023/11/16 08:36:26;;;;;;;1999.90;999.90;;;8.60;99.90;;;;;;4998141;28;20026;-71
2023/11/16 08:38:52;;;;;;;1999.90;999.90;;;8.70;99.90;;;;;;4976034;28;20089;-71
2023/11/16 08:41:18;;;;;;;1999.90;999.90;;;8.70;99.90;;;;;;4966578;28;20031;-71
2023/11/16 08:43:50;;;;;;;1999.90;999.90;;;8.70;99.90;;;;;;4976357;28;20023;-71
2023/11/16 08:46:24;;;;;;;1999.90;999.90;;;8.60;99.90;;;;;;4970275;28;20050;-71
2023/11/16 08:48:53;;;;;;;1999.90;999.90;;;8.60;99.90;;;;;;4972016;28;20075;-71
2023/11/16 08:51:22;;;;;;;1999.90;999.90;;;8.70;99.90;;;;;;4972358;28;20027;-70
2023/11/16 08:53:54;;;;;;;1999.90;999.90;;;8.70;99.90;;;;;;4972521;28;20414;-70
2023/11/16 08:56:20;;;;;;;1999.90;999.90;;;8.80;99.90;;;;;;4971950;28;20030;-70
2023/11/16 08:58:48;;;;;;;1999.90;999.90;;;8.90;99.90;;;;;;4966580;28;20035;-71
2023/11/16 09:01:18;;;;;;;1999.90;999.90;;;8.90;99.90;;;;;;4963974;28;20024;-70
2023/11/16 09:03:51;;;;;;;1999.90;999.90;;;8.90;99.90;;;;;;4971058;28;20417;-71
2023/11/16 09:06:21;;;;;;;1999.90;999.90;;;8.90;99.90;;;;;;4967246;28;20067;-70
2023/11/16 09:08:50;;;;;;;1999.90;999.90;;;8.90;99.90;;;;;;4967467;28;20313;-70
2023/11/16 09:11:22;;;;;;;1999.90;999.90;;;8.90;99.90;;;;;;4970796;28;20326;-71
2023/11/16 09:13:48;;;;;;;1999.90;999.90;;;8.90;99.90;;;;;;4972058;28;20019;-71
2023/11/16 09:16:14;;;;;;;1999.90;999.90;;;9.00;99.90;;;;;;4971852;28;20112;-71
2023/11/16 09:18:41;;;;;;;1999.90;999.90;;;9.00;99.90;;;;;;4972019;28;20035;-70
2023/11/16 09:21:09;;;;;;;1999.90;999.90;;;9.00;99.90;;;;;;4971086;28;20030;-71
2023/11/16 09:23:36;;;;;;;1999.90;999.90;;;9.00;99.90;;;;;;4970440;28;20030;-71
2023/11/16 09:26:02;;;;;;;;;;;9.00;99.90;;;;;;4972653;28;20035;-71
2023/11/16 09:28:29;;;;;;;1999.90;999.90;;;9.10;99.90;;;;;;4971886;28;20001;-71
2023/11/16 09:30:57;;;;;;;1999.90;999.90;;;9.10;99.90;;;;;;4972058;28;20023;-70
2023/11/16 09:33:23;;;;;;;1999.90;999.90;;;9.20;99.90;;;;;;4972024;28;20095;-70
2023/11/16 09:35:51;;;;;;;1999.90;999.90;;;9.20;99.90;;;;;;4971937;28;20050;-70
2023/11/16 09:38:18;;;;;;;1999.90;999.90;;;9.20;99.90;;;;;;4971184;28;20057;-70
2023/11/16 09:40:44;;;;;;;1999.90;999.90;;;9.20;99.90;;;;;;4971072;28;20026;-70
2023/11/16 09:43:17;;;;;;;1999.90;999.90;;;9.20;99.90;;;;;;4974321;28;20023;-70
2023/11/16 09:45:53;;;;;;;1999.90;999.90;;;9.20;99.90;;;;;;4975344;28;20034;-70
2023/11/16 09:48:22;;;;;;;1999.90;999.90;;;9.30;99.90;;;;;;4973897;28;20057;-70
2023/11/16 09:50:50;;;;;;;1999.90;999.90;;;9.30;99.90;;;;;;4967136;28;20082;-70
2023/11/16 09:53:17;;;;;;;1999.90;999.90;;;9.30;99.90;;;;;;4974926;28;20054;-70
2023/11/16 09:55:46;;;;;;;1999.90;999.90;;;9.40;99.90;;;;;;4975630;28;20077;-70
2023/11/16 09:58:17;;;;;;;1999.90;999.90;;;9.40;99.90;;;;;;4974780;28;20031;-70
2023/11/16 10:00:48;;;;;;;1999.90;999.90;;;9.40;99.90;;;;;;4975364;28;20302;-70
2023/11/16 10:03:20;;;;;;;1999.90;999.90;;;9.40;99.90;;;;;;4975466;28;20105;-70
2023/11/16 10:05:46;;;;;;;1999.90;999.90;;;9.40;99.90;;;;;;4975295;28;20043;-70
2023/11/16 10:08:15;;;;;;;1999.90;999.90;;;9.40;99.90;;;;;;4973815;28;20023;-70
2023/11/16 10:11:05;;;;;;;1999.90;999.90;;;9.40;99.90;;;;;;4973294;28;20532;-70
2023/11/16 10:13:31;;;;;;;1999.90;999.90;;;9.30;99.90;;;;;;4974665;28;20023;-71
2023/11/16 10:16:08;;;;;;;1999.90;999.90;;;9.40;99.90;;;;;;4974738;28;20038;-70
2023/11/16 10:18:35;;;;;;;1999.90;999.90;;;9.40;99.90;;;;;;4975111;28;20053;-70
2023/11/16 10:21:03;;;;;;;1999.90;999.90;;;9.40;99.90;;;;;;4964703;28;20029;-70
2023/11/16 10:23:29;;;;;;;1999.90;999.90;;;9.40;99.90;;;;;;4973278;28;20364;-70
2023/11/16 10:25:58;;;;;;;1999.90;999.90;;;9.40;99.90;;;;;;4974616;28;20077;-70
2023/11/16 10:28:25;;;;;;;1999.90;999.90;;;9.40;99.90;;;;;;4974271;28;20031;-70
2023/11/16 10:30:54;;;;;;;1999.90;999.90;;;9.40;99.90;;;;;;4974559;28;20031;-70
2023/11/16 10:33:23;;;;;;;1999.90;999.90;;;9.30;99.90;;;;;;4974681;28;20122;-70
2023/11/16 10:35:56;;;;;;;1999.90;999.90;;;9.30;99.90;;;;;;4960545;28;20080;-70
2023/11/16 10:38:23;;;;;;;1999.90;999.90;;;9.40;99.90;;;;;;4974507;28;20070;-70
2023/11/16 10:40:52;;;;;;;1999.90;999.90;;;9.40;99.90;;;;;;4973078;28;20485;-70
2023/11/16 10:43:30;;;;;;;1999.90;999.90;;;9.40;99.90;;;;;;4974615;28;20034;-70
2023/11/16 10:46:03;;;;;;;1999.90;999.90;;;9.40;99.90;;;;;;4973881;28;20365;-70
2023/11/16 10:48:29;;;;;;;1999.90;999.90;;;9.30;99.90;;;;;;4974631;28;20315;-70
2023/11/16 10:51:00;;;;;;;1999.90;999.90;;;9.30;99.90;;;;;;4973794;28;20031;-70
2023/11/16 10:53:34;;;;;;;1999.90;999.90;;;9.30;99.90;;;;;;4973189;28;20045;-70
2023/11/16 10:56:01;;;;;;;1999.90;999.90;;;9.30;99.90;;;;;;4974356;28;20023;-70
2023/11/16 10:58:29;;;;;;;1999.90;999.90;;;9.30;99.90;;;;;;4974502;28;20402;-70
2023/11/16 11:01:10;;;;;;;1999.90;999.90;;;9.40;99.90;;;;;;4973854;28;20425;-71
2023/11/16 11:03:40;;;;;;;1999.90;999.90;;;9.40;99.90;;;;;;4965904;28;20034;-70
2023/11/16 11:06:12;;;;;;;1999.90;999.90;;;9.40;99.90;;;;;;4970765;28;20061;-70
2023/11/16 11:08:43;;;;;;;1999.90;999.90;;;9.40;99.90;;;;;;4960876;28;20026;-70
2023/11/16 11:11:10;;;;;;;1999.90;999.90;;;9.40;99.90;;;;;;4964242;28;20031;-70
2023/11/16 11:13:43;;;;;;;1999.90;999.90;;;9.40;99.90;;;;;;4982648;28;20034;-70
2023/11/16 11:16:15;;;;;;;1999.90;999.90;;;9.40;99.90;;;;;;4967105;28;20456;-70
2023/11/16 11:18:45;;;;;;;1999.90;999.90;;;9.40;99.90;;;;;;4973437;28;20475;-70
2023/11/16 11:21:14;;;;;;;1999.90;999.90;;;9.40;99.90;;;;;;4972736;28;20085;-70
2023/11/16 11:23:41;;;;;;;1999.90;999.90;;;9.40;99.90;;;;;;4982468;28;20028;-70
2023/11/16 11:26:07;;;;;;;1999.90;999.90;;;9.30;99.90;;;;;;4977876;28;20027;-70
2023/11/16 11:28:38;;;;;;;1999.90;999.90;;;9.30;99.90;;;;;;4967232;28;20061;-70
2023/11/16 11:31:05;;;;;;;1999.90;999.90;;;9.30;99.90;;;;;;4969274;28;20077;-70
2023/11/16 11:33:45;;;;;;;1999.90;999.90;;;9.30;99.90;;;;;;4974764;28;20031;-70
2023/11/16 11:36:17;;;;;;;1999.90;999.90;;;9.30;99.90;;;;;;4970610;28;20060;-70
2023/11/16 11:38:50;;;;;;;1999.90;999.90;;;9.30;99.90;;;;;;4974534;28;20120;-70
2023/11/16 11:41:19;;;;;;;1999.90;999.90;;;9.30;99.90;;;;;;4965839;28;20428;-70
2023/11/16 11:43:45;;;;;;;1999.90;999.90;;;9.30;99.90;;;;;;4966314;28;20112;-70
2023/11/16 11:46:16;;;;;;;1999.90;999.90;;;9.30;99.90;;;;;;4985968;28;20428;-70
2023/11/16 11:48:42;;;;;;;1999.90;999.90;;;9.30;99.90;;;;;;4971179;28;20081;-70
2023/11/16 11:51:09;;;;;;;1999.90;999.90;;;9.30;99.90;;;;;;4975315;28;20139;-71
2023/11/16 11:53:35;;;;;;;1999.90;999.90;;;9.30;99.90;;;;;;4976442;28;20027;-70
2023/11/16 11:56:06;;;;;;;1999.90;999.90;;;9.30;99.90;;;;;;5012100;28;20031;-71
2023/11/16 11:58:39;;;;;;;1999.90;999.90;;;9.30;99.90;;;;;;4974013;28;20036;-70
2023/11/16 12:01:10;;;;;;;1999.90;999.90;;;9.30;99.90;;;;;;4981290;28;20073;-70
2023/11/16 12:03:36;;;;;;;1999.90;999.90;;;9.30;99.90;;;;;;4959978;28;20019;-70
2023/11/16 12:06:02;;;;;;;;;;;9.30;99.90;;;;;;4964644;28;20322;-70
2023/11/16 12:08:46;;;;;;;1999.90;999.90;;;9.30;99.90;;;;;;4983316;28;19910;-70
2023/11/16 12:11:14;;;;;;;1999.90;999.90;;;9.30;99.90;;;;;;4975747;28;20028;-71
2023/11/16 12:13:42;;;;;;;1999.90;999.90;;;9.30;99.90;;;;;;5010962;28;20038;-71